createdAt,value
2018-06-23T00:00:26.061Z,3.00
2018-06-23T00:02:54.155Z,3.37
2018-06-23T00:05:22.191Z,3.67
2018-06-23T00:07:50.288Z,3.40
2018-06-23T00:10:18.263Z,3.63
2018-06-23T00:12:46.242Z,3.03
2018-06-23T00:15:14.272Z,2.70
2018-06-23T00:17:42.305Z,2.00
2018-06-23T00:20:10.192Z,2.90
2018-06-23T00:22:38.218Z,2.67
2018-06-23T00:25:06.270Z,3.30
2018-06-23T00:27:34.386Z,3.47
2018-06-23T00:30:02.428Z,3.00
2018-06-23T00:32:30.391Z,2.67
2018-06-23T00:34:58.258Z,3.23
2018-06-23T00:37:26.283Z,3.27
2018-06-23T00:39:54.360Z,3.10
2018-06-23T00:42:22.382Z,2.87
2018-06-23T00:44:50.435Z,3.10
2018-06-23T00:47:18.519Z,3.47
2018-06-23T00:49:46.603Z,2.57
2018-06-23T00:52:15.668Z,3.30
2018-06-23T00:54:43.630Z,3.07
2018-06-23T00:57:11.754Z,2.90
2018-06-23T00:59:42.091Z,2.90
2018-06-23T01:02:10.452Z,3.50
2018-06-23T01:04:38.823Z,3.45
2018-06-23T01:07:08.308Z,3.23
2018-06-23T01:09:36.379Z,3.03
2018-06-23T01:12:05.170Z,4.10
2018-06-23T01:14:33.190Z,3.50
2018-06-23T01:17:01.211Z,2.70
2018-06-23T01:19:29.263Z,3.23
2018-06-23T01:21:57.570Z,2.80
2018-06-23T01:24:25.855Z,3.20
2018-06-23T01:26:53.903Z,3.27
2018-06-23T01:29:21.733Z,3.00
2018-06-23T01:31:49.777Z,3.20
2018-06-23T01:34:17.828Z,4.13
2018-06-23T01:36:46.041Z,3.23
2018-06-23T01:39:14.035Z,3.20
2018-06-23T01:41:42.023Z,3.27
2018-06-23T01:44:10.179Z,3.20
2018-06-23T01:46:38.228Z,2.87
2018-06-23T01:49:06.407Z,3.00
2018-06-23T01:51:34.764Z,3.53
2018-06-23T01:54:02.882Z,3.00
2018-06-23T01:56:30.868Z,3.13
2018-06-23T01:58:58.895Z,3.40
2018-06-23T02:01:26.754Z,3.37
2018-06-23T02:03:54.786Z,3.17
2018-06-23T02:06:22.878Z,4.07
2018-06-23T02:08:50.922Z,3.43
2018-06-23T02:11:18.792Z,3.60
2018-06-23T02:13:46.786Z,2.83
2018-06-23T02:16:20.154Z,2.87
2018-06-23T02:19:51.382Z,3.00
2018-06-23T02:23:25.661Z,2.87
2018-06-23T02:25:59.204Z,3.33
2018-06-23T02:28:32.786Z,3.73
2018-06-23T02:31:06.167Z,4.00
2018-06-23T02:33:39.739Z,3.70
2018-06-23T02:36:07.848Z,3.13
2018-06-23T02:38:35.698Z,3.83
2018-06-23T02:41:03.834Z,4.43
2018-06-23T02:43:31.939Z,3.53
2018-06-23T02:45:59.992Z,3.23
2018-06-23T02:48:27.871Z,3.60
2018-06-23T02:50:55.845Z,3.70
2018-06-23T02:53:23.704Z,4.43
2018-06-23T02:55:51.647Z,3.73
2018-06-23T02:58:19.728Z,4.90
2018-06-23T03:00:47.799Z,3.90
2018-06-23T03:03:15.990Z,3.73
2018-06-23T03:05:44.044Z,4.60
2018-06-23T03:08:11.923Z,4.47
2018-06-23T03:10:39.926Z,3.30
2018-06-23T03:13:07.774Z,3.20
2018-06-23T03:15:35.763Z,3.70
2018-06-23T03:18:03.755Z,3.80
2018-06-23T03:20:31.910Z,4.13
2018-06-23T03:23:00.150Z,5.07
2018-06-23T03:25:28.103Z,4.10
2018-06-23T03:27:56.102Z,4.03
2018-06-23T03:30:24.129Z,3.30
2018-06-23T03:32:52.178Z,4.50
2018-06-23T03:35:20.208Z,4.10
2018-06-23T03:37:48.259Z,3.50
2018-06-23T03:40:16.305Z,4.03
2018-06-23T03:42:44.212Z,4.37
2018-06-23T03:45:12.312Z,5.20
2018-06-23T03:47:40.283Z,4.20
2018-06-23T03:50:08.364Z,4.53
2018-06-23T03:52:36.368Z,5.63
2018-06-23T03:55:05.195Z,4.23
2018-06-23T03:57:33.230Z,3.90
2018-06-23T04:00:01.708Z,4.30
2018-06-23T04:02:29.730Z,5.83
2018-06-23T04:04:57.782Z,4.40
2018-06-23T04:07:25.734Z,4.60
2018-06-23T04:09:53.782Z,4.60
2018-06-23T04:12:21.841Z,4.67
2018-06-23T04:14:49.837Z,4.73
2018-06-23T04:17:18.015Z,4.03
2018-06-23T04:20:16.883Z,4.90
2018-06-23T04:22:45.010Z,3.83
2018-06-23T04:25:13.027Z,4.30
2018-06-23T04:27:41.127Z,4.37
2018-06-23T04:30:09.052Z,3.30
2018-06-23T04:32:37.031Z,4.30
2018-06-23T04:35:05.182Z,5.07
2018-06-23T04:40:07.623Z,4.07
2018-06-23T04:42:35.436Z,3.93
2018-06-23T04:45:03.507Z,4.97
2018-06-23T04:47:31.554Z,4.33
2018-06-23T04:49:59.520Z,3.63
2018-06-23T04:52:27.476Z,4.57
2018-06-23T04:54:55.522Z,4.73
2018-06-23T04:57:23.525Z,4.03
2018-06-23T04:59:51.470Z,4.80
2018-06-23T05:02:19.418Z,4.23
2018-06-23T05:04:47.499Z,3.80
2018-06-23T05:07:15.448Z,3.77
2018-06-23T05:09:43.407Z,3.50
2018-06-23T05:12:16.283Z,4.53
2018-06-23T05:14:44.332Z,4.43
2018-06-23T05:17:12.267Z,4.00
2018-06-23T05:19:40.223Z,4.20
2018-06-23T05:22:08.248Z,3.43
2018-06-23T05:24:36.099Z,3.97
2018-06-23T05:27:04.352Z,3.63
2018-06-23T05:29:32.458Z,4.73
2018-06-23T05:32:00.479Z,4.67
2018-06-23T05:34:28.374Z,4.00
2018-06-23T05:36:56.344Z,4.83
2018-06-23T05:39:24.146Z,4.40
2018-06-23T05:41:52.104Z,4.80
2018-06-23T05:44:20.203Z,4.80
2018-06-23T05:46:48.279Z,3.83
2018-06-23T05:49:16.247Z,3.80
2018-06-23T05:51:44.031Z,3.97
2018-06-23T05:54:11.895Z,4.37
2018-06-23T05:56:39.835Z,3.50
2018-06-23T05:59:07.820Z,3.93
2018-06-23T06:01:35.980Z,5.30
2018-06-23T06:04:04.204Z,5.03
2018-06-23T06:06:32.247Z,3.20
2018-06-23T06:09:00.015Z,3.50
2018-06-23T06:11:28.007Z,3.80
2018-06-23T06:13:56.683Z,4.00
2018-06-23T06:16:28.931Z,3.80
2018-06-23T06:18:57.034Z,2.60
2018-06-23T06:21:25.195Z,3.20
2018-06-23T06:23:53.307Z,3.50
2018-06-23T06:26:21.228Z,3.40
2018-06-23T06:28:49.190Z,3.07
2018-06-23T06:31:17.006Z,3.27
2018-06-23T06:33:45.021Z,4.63
2018-06-23T06:36:12.993Z,4.07
2018-06-23T06:38:41.072Z,4.17
2018-06-23T06:41:09.226Z,3.70
2018-06-23T06:43:37.163Z,4.50
2018-06-23T06:46:05.390Z,4.60
2018-06-23T06:48:33.363Z,3.73
2018-06-23T06:51:01.347Z,3.50
2018-06-23T06:53:29.207Z,3.80
2018-06-23T06:55:57.212Z,3.80
2018-06-23T06:58:25.182Z,4.37
2018-06-23T07:00:53.026Z,4.17
2018-06-23T07:03:20.970Z,4.73
2018-06-23T07:05:49.059Z,5.03
2018-06-23T07:08:17.107Z,4.37
2018-06-23T07:10:45.059Z,4.40
2018-06-23T07:13:13.105Z,4.27
2018-06-23T07:15:41.167Z,3.33
2018-06-23T07:18:09.107Z,4.23
2018-06-23T07:20:37.184Z,4.30
2018-06-23T07:23:05.236Z,3.97
2018-06-23T07:25:33.302Z,3.30
2018-06-23T07:28:01.079Z,3.70
2018-06-23T07:30:29.034Z,3.47
2018-06-23T07:32:57.031Z,3.57
2018-06-23T07:35:31.436Z,4.20
2018-06-23T07:37:59.451Z,3.10
2018-06-23T07:40:27.250Z,3.33
2018-06-23T07:42:55.272Z,2.40
2018-06-23T07:45:23.263Z,2.57
2018-06-23T07:47:51.210Z,2.97
2018-06-23T07:50:19.262Z,2.90
2018-06-23T07:52:47.058Z,3.10
2018-06-23T07:55:15.041Z,3.07
2018-06-23T07:57:43.167Z,2.93
2018-06-23T08:00:11.135Z,3.00
2018-06-23T08:02:39.207Z,3.00
2018-06-23T08:05:07.169Z,3.10
2018-06-23T08:07:35.176Z,3.27
2018-06-23T08:10:03.115Z,2.90
2018-06-23T08:12:31.075Z,2.90
2018-06-23T08:14:59.086Z,3.30
2018-06-23T08:17:26.947Z,3.00
2018-06-23T08:19:55.692Z,3.60
2018-06-23T08:22:23.764Z,3.10
2018-06-23T08:24:51.729Z,2.20
2018-06-23T08:27:19.759Z,2.67
2018-06-23T08:29:47.965Z,2.23
2018-06-23T08:32:16.174Z,3.70
2018-06-23T08:34:44.126Z,2.37
2018-06-23T08:37:12.208Z,3.07
2018-06-23T08:39:40.188Z,1.97
2018-06-23T08:42:08.203Z,1.90
2018-06-23T08:44:36.244Z,1.77
2018-06-23T08:47:04.360Z,2.50
2018-06-23T08:49:32.367Z,1.67
2018-06-23T08:52:01.315Z,1.93
2018-06-23T08:54:29.356Z,1.60
2018-06-23T08:56:57.372Z,1.90
2018-06-23T08:59:26.035Z,1.57
2018-06-23T09:01:53.902Z,1.83
2018-06-23T09:04:21.850Z,1.67
2018-06-23T09:06:49.896Z,1.97
2018-06-23T09:09:17.769Z,1.67
2018-06-23T09:11:45.626Z,1.90
2018-06-23T09:14:13.631Z,2.33
2018-06-23T09:16:41.618Z,2.33
2018-06-23T09:19:09.517Z,2.07
2018-06-23T09:21:38.527Z,1.80
2018-06-23T09:24:06.547Z,3.03
2018-06-23T09:26:34.512Z,2.40
2018-06-23T09:29:02.459Z,3.43
2018-06-23T09:31:30.247Z,2.17
2018-06-23T09:33:58.237Z,1.97
2018-06-23T09:36:26.658Z,2.20
2018-06-23T09:38:54.765Z,2.37
2018-06-23T09:41:22.766Z,2.10
2018-06-23T09:43:51.137Z,2.27
2018-06-23T09:46:19.158Z,2.90
2018-06-23T09:48:47.092Z,2.23
2018-06-23T09:51:16.114Z,1.90
2018-06-23T09:53:44.143Z,2.23
2018-06-23T09:56:19.985Z,3.10
2018-06-23T09:58:48.244Z,2.77
2018-06-23T10:01:20.907Z,2.67
2018-06-23T10:03:48.876Z,2.23
2018-06-23T10:06:16.960Z,2.47
2018-06-23T10:08:45.020Z,2.20
2018-06-23T10:11:13.145Z,2.37
2018-06-23T10:13:41.203Z,2.40
2018-06-23T10:16:09.038Z,2.90
2018-06-23T10:18:37.067Z,2.03
2018-06-23T10:21:04.925Z,2.33
2018-06-23T10:23:32.886Z,2.60
2018-06-23T10:26:00.906Z,2.60
2018-06-23T10:28:28.754Z,3.03
2018-06-23T10:30:57.273Z,2.70
2018-06-23T10:33:25.178Z,2.03
2018-06-23T10:35:54.307Z,1.90
2018-06-23T10:38:22.483Z,2.47
2018-06-23T10:40:50.462Z,3.10
2018-06-23T10:43:18.547Z,2.23
2018-06-23T10:45:46.663Z,2.23
2018-06-23T10:48:14.676Z,1.83
2018-06-23T10:50:42.608Z,1.70
2018-06-23T10:53:10.715Z,3.07
2018-06-23T10:55:39.010Z,2.33
2018-06-23T10:58:08.991Z,2.80
2018-06-23T11:00:38.623Z,2.57
2018-06-23T11:03:06.755Z,1.60
2018-06-23T11:05:34.823Z,1.50
2018-06-23T11:08:02.896Z,2.20
2018-06-23T11:10:30.969Z,1.63
2018-06-23T11:12:58.935Z,1.57
2018-06-23T11:15:27.607Z,1.37
2018-06-23T11:17:55.578Z,1.50
2018-06-23T11:20:23.615Z,1.50
2018-06-23T11:22:51.574Z,1.83
2018-06-23T11:25:19.354Z,1.47
2018-06-23T11:27:47.182Z,1.80
2018-06-23T11:30:15.224Z,1.83
2018-06-23T11:32:43.250Z,2.37
2018-06-23T11:35:11.255Z,1.40
2018-06-23T11:37:39.278Z,2.30
2018-06-23T11:40:07.568Z,2.23
2018-06-23T11:42:35.595Z,1.93
2018-06-23T11:45:04.055Z,1.57
2018-06-23T11:47:32.213Z,2.10
2018-06-23T11:50:00.311Z,2.30
2018-06-23T11:52:28.507Z,1.80
2018-06-23T11:54:56.374Z,1.50
2018-06-23T11:57:24.366Z,1.70
2018-06-23T11:59:52.432Z,1.93
2018-06-23T12:02:20.382Z,1.50
2018-06-23T12:04:48.399Z,1.50
2018-06-23T12:07:16.295Z,1.40
2018-06-23T12:09:44.340Z,2.30
2018-06-23T12:12:12.399Z,1.50
2018-06-23T12:14:40.422Z,1.47
2018-06-23T12:17:08.215Z,1.10
2018-06-23T12:19:36.171Z,1.57
2018-06-23T12:22:04.160Z,1.90
2018-06-23T12:24:32.195Z,2.20
2018-06-23T12:27:00.231Z,1.87
2018-06-23T12:29:28.290Z,1.70
2018-06-23T12:31:56.485Z,2.03
2018-06-23T12:34:24.528Z,1.63
2018-06-23T12:36:52.566Z,3.30
2018-06-23T12:39:20.646Z,2.33
2018-06-23T12:41:49.175Z,3.07
2018-06-23T12:44:17.200Z,3.07
2018-06-23T12:46:45.245Z,2.40
2018-06-23T12:49:13.266Z,3.40
2018-06-23T12:51:41.416Z,1.80
2018-06-23T12:54:09.406Z,3.33
2018-06-23T12:56:37.403Z,3.00
2018-06-23T12:59:05.440Z,4.23
2018-06-23T13:01:33.251Z,2.17
2018-06-23T13:04:01.392Z,2.17
2018-06-23T13:06:30.158Z,1.93
2018-06-23T13:08:58.143Z,3.30
2018-06-23T13:11:26.344Z,2.67
2018-06-23T13:16:35.547Z,2.23
2018-06-23T13:19:03.568Z,2.03
2018-06-23T13:21:31.515Z,2.13
2018-06-23T13:23:59.375Z,1.97
2018-06-23T13:26:27.502Z,2.03
2018-06-23T13:28:55.665Z,2.00
2018-06-23T13:31:23.455Z,2.10
2018-06-23T13:33:51.883Z,2.47
2018-06-23T13:36:19.831Z,2.30
2018-06-23T13:38:47.831Z,2.50
2018-06-23T13:41:15.958Z,2.60
2018-06-23T13:43:43.980Z,2.50
2018-06-23T13:46:12.299Z,3.13
2018-06-23T13:48:40.574Z,2.70
2018-06-23T13:51:08.680Z,2.53
2018-06-23T13:53:36.746Z,2.47
2018-06-23T13:56:04.940Z,2.60
2018-06-23T13:58:33.002Z,2.83
2018-06-23T14:01:01.065Z,3.70
2018-06-23T14:03:29.069Z,2.43
2018-06-23T14:05:56.871Z,2.70
2018-06-23T14:08:25.367Z,3.37
2018-06-23T14:10:53.350Z,2.23
2018-06-23T14:13:21.411Z,3.10
2018-06-23T14:15:49.429Z,2.40
2018-06-23T14:18:17.395Z,2.73
2018-06-23T14:20:45.367Z,1.80
2018-06-23T14:23:13.451Z,2.30
2018-06-23T14:25:41.587Z,2.52
2018-06-23T14:28:09.591Z,1.80
2018-06-23T14:30:37.603Z,2.00
2018-06-23T14:33:05.687Z,1.97
2018-06-23T14:35:33.652Z,1.90
2018-06-23T14:38:01.776Z,2.63
2018-06-23T14:40:29.954Z,3.43
2018-06-23T14:42:57.999Z,3.10
2018-06-23T14:45:25.892Z,19.00
2018-06-23T14:47:53.963Z,8.67
2018-06-23T14:50:21.831Z,3.10
2018-06-23T14:52:50.224Z,2.60
2018-06-23T14:55:18.284Z,3.20
2018-06-23T14:57:46.339Z,2.10
2018-06-23T15:00:14.757Z,3.80
2018-06-23T15:02:42.658Z,3.23
2018-06-23T15:05:10.684Z,2.70
2018-06-23T15:07:38.952Z,4.17
2018-06-23T15:10:12.472Z,3.93
2018-06-23T15:13:17.591Z,4.70
2018-06-23T15:15:45.879Z,12.03
2018-06-23T15:18:15.123Z,9.50
2018-06-23T15:20:43.275Z,17.57
2018-06-23T15:23:11.346Z,3.10
2018-06-23T15:25:39.483Z,3.60
2018-06-23T15:28:07.408Z,4.60
2018-06-23T15:30:36.040Z,7.20
2018-06-23T15:33:04.101Z,6.27
2018-06-23T15:35:32.869Z,5.50
2018-06-23T15:38:01.363Z,5.40
2018-06-23T15:40:29.813Z,4.07
2018-06-23T15:42:57.977Z,5.37
2018-06-23T15:45:25.985Z,5.60
2018-06-23T15:47:54.503Z,6.50
2018-06-23T15:50:22.595Z,3.63
2018-06-23T15:52:50.567Z,15.77
2018-06-23T15:55:18.363Z,12.00
2018-06-23T15:57:46.331Z,4.50
2018-06-23T16:00:14.644Z,4.80
2018-06-23T16:02:42.968Z,4.00
2018-06-23T16:05:10.940Z,4.20
2018-06-23T16:07:39.019Z,4.43
2018-06-23T16:10:11.828Z,4.37
2018-06-23T16:12:39.877Z,4.10
2018-06-23T16:15:09.181Z,5.50
2018-06-23T16:17:37.155Z,5.17
2018-06-23T16:20:05.566Z,3.97
2018-06-23T16:22:33.799Z,4.75
2018-06-23T16:25:02.143Z,6.07
2018-06-23T16:27:30.429Z,4.27
2018-06-23T16:29:58.620Z,5.30
2018-06-23T16:32:26.746Z,4.63
2018-06-23T16:34:54.905Z,3.60
2018-06-23T16:37:22.940Z,4.13
2018-06-23T16:39:50.789Z,4.53
2018-06-23T16:42:18.867Z,3.93
2018-06-23T16:44:46.948Z,3.37
2018-06-23T16:47:15.039Z,4.07
2018-06-23T16:49:42.974Z,3.43
2018-06-23T16:52:10.962Z,4.30
2018-06-23T16:54:39.374Z,4.23
2018-06-23T16:57:07.423Z,4.83
2018-06-23T16:59:36.721Z,5.50
2018-06-23T17:02:04.514Z,3.80
2018-06-23T17:04:32.472Z,4.53
2018-06-23T17:07:00.432Z,3.67
2018-06-23T17:09:28.386Z,3.97
2018-06-23T17:11:56.486Z,3.90
2018-06-23T17:14:24.503Z,3.07
2018-06-23T17:16:52.467Z,3.80
2018-06-23T17:19:20.497Z,3.47
2018-06-23T17:21:48.655Z,3.63
2018-06-23T17:24:16.969Z,2.50
2018-06-23T17:26:44.943Z,2.90
2018-06-23T17:29:12.715Z,3.10
2018-06-23T17:31:40.574Z,2.50
2018-06-23T17:34:08.523Z,2.40
2018-06-23T17:36:36.582Z,2.30
2018-06-23T17:39:07.048Z,2.80
2018-06-23T17:41:35.789Z,2.30
2018-06-23T17:44:03.968Z,3.10
2018-06-23T17:46:31.994Z,3.07
2018-06-23T17:49:00.020Z,4.27
2018-06-23T17:51:28.017Z,3.93
2018-06-23T17:53:56.084Z,14.30
2018-06-23T17:56:24.560Z,7.00
2018-06-23T17:58:52.546Z,9.00
2018-06-23T18:01:20.525Z,5.10
2018-06-23T18:03:48.590Z,3.73
2018-06-23T18:06:17.502Z,4.63
2018-06-23T18:08:45.447Z,3.73
2018-06-23T18:11:13.826Z,4.37
2018-06-23T18:13:41.582Z,4.40
2018-06-23T18:16:09.559Z,3.60
2018-06-23T18:18:37.563Z,4.70
2018-06-23T18:21:05.855Z,3.30
2018-06-23T18:23:33.824Z,4.00
2018-06-23T18:26:01.812Z,3.60
2018-06-23T18:28:29.832Z,3.70
2018-06-23T18:30:57.807Z,3.60
2018-06-23T18:33:25.683Z,4.07
2018-06-23T18:35:53.479Z,3.83
2018-06-23T18:38:21.464Z,3.87
2018-06-23T18:40:49.466Z,4.10
2018-06-23T18:43:17.431Z,3.63
2018-06-23T18:45:45.363Z,4.33
2018-06-23T18:48:14.228Z,3.70
2018-06-23T18:50:42.271Z,3.60
2018-06-23T18:53:10.238Z,4.40
2018-06-23T18:55:38.600Z,3.83
2018-06-23T19:01:05.699Z,6.80
2018-06-23T19:03:33.680Z,4.50
2018-06-23T19:06:01.703Z,10.50
2018-06-23T19:08:29.582Z,4.60
2018-06-23T19:10:57.531Z,6.87
2018-06-23T19:13:25.568Z,7.40
2018-06-23T19:15:53.518Z,3.33
2018-06-23T19:18:21.591Z,2.77
2018-06-23T19:20:49.609Z,2.60
2018-06-23T19:23:17.387Z,3.43
2018-06-23T19:25:45.174Z,3.60
2018-06-23T19:28:13.135Z,2.93
2018-06-23T19:30:41.106Z,4.10
2018-06-23T19:33:09.127Z,2.97
2018-06-23T19:35:37.283Z,2.93
2018-06-23T19:38:05.473Z,2.40
2018-06-23T19:40:33.495Z,2.57
2018-06-23T19:43:01.437Z,4.53
2018-06-23T19:45:29.383Z,2.60
2018-06-23T19:47:57.342Z,4.10
2018-06-23T19:50:25.423Z,2.83
2018-06-23T19:52:53.513Z,3.03
2018-06-23T19:55:21.602Z,3.07
2018-06-23T19:57:49.763Z,1.57
2018-06-23T20:00:17.847Z,2.50
2018-06-23T20:02:52.263Z,3.63
2018-06-23T20:05:20.132Z,2.13
2018-06-23T20:07:48.079Z,2.63
2018-06-23T20:10:16.151Z,2.90
2018-06-23T20:12:44.186Z,2.70
2018-06-23T20:15:12.147Z,3.30
2018-06-23T20:17:40.157Z,3.53
2018-06-23T20:20:08.115Z,3.30
2018-06-23T20:22:36.179Z,3.27
2018-06-23T20:25:04.239Z,5.73
2018-06-23T20:27:32.204Z,4.20
2018-06-23T20:30:00.074Z,4.00
2018-06-23T20:32:27.854Z,3.47
2018-06-23T20:34:55.675Z,4.20
2018-06-23T20:37:23.695Z,3.87
2018-06-23T20:39:51.643Z,3.93
2018-06-23T20:42:19.743Z,3.30
2018-06-23T20:44:47.704Z,3.60
2018-06-23T20:47:15.690Z,3.53
2018-06-23T20:49:43.663Z,3.80
2018-06-23T20:52:11.720Z,5.60
2018-06-23T20:54:39.756Z,4.90
2018-06-23T20:57:07.710Z,4.27
2018-06-23T20:59:35.861Z,3.27
2018-06-23T21:02:03.651Z,3.53
2018-06-23T21:04:31.650Z,4.63
2018-06-23T21:06:59.616Z,5.03
2018-06-23T21:09:27.623Z,5.80
2018-06-23T21:11:55.786Z,5.80
2018-06-23T21:14:23.872Z,6.37
2018-06-23T21:16:51.989Z,5.50
2018-06-23T21:19:20.070Z,6.00
2018-06-23T21:21:48.151Z,6.27
2018-06-23T21:24:16.095Z,6.20
2018-06-23T21:26:43.918Z,7.87
2018-06-23T21:29:11.956Z,6.40
2018-06-23T21:31:40.136Z,3.40
2018-06-23T21:34:08.311Z,4.60
2018-06-23T21:36:36.319Z,3.67
2018-06-23T21:39:05.638Z,3.50
2018-06-23T21:41:33.490Z,5.97
2018-06-23T21:44:02.166Z,3.20
2018-06-23T21:46:30.250Z,4.33
2018-06-23T21:48:58.331Z,4.17
2018-06-23T21:51:26.367Z,3.40
2018-06-23T21:53:54.202Z,3.92
2018-06-23T21:56:22.239Z,7.10
2018-06-23T21:58:50.381Z,10.50
2018-06-23T22:01:18.863Z,12.23
2018-06-23T22:03:47.118Z,11.37
2018-06-23T22:06:15.191Z,10.63
2018-06-23T22:08:43.163Z,10.40
2018-06-23T22:11:11.152Z,11.50
2018-06-23T22:13:39.036Z,12.17
2018-06-23T22:16:07.470Z,11.27
2018-06-23T22:18:35.443Z,11.87
2018-06-23T22:21:03.631Z,10.50
2018-06-23T22:23:32.384Z,11.20
2018-06-23T22:26:00.179Z,10.80
2018-06-23T22:28:28.312Z,10.03
2018-06-23T22:30:56.499Z,11.73
2018-06-23T22:33:24.558Z,10.77
2018-06-23T22:35:52.806Z,11.23
2018-06-23T22:38:21.095Z,9.60
2018-06-23T22:40:49.092Z,10.87
2018-06-23T22:43:17.346Z,9.87
2018-06-23T22:45:45.305Z,9.70
2018-06-23T22:48:13.347Z,9.90
2018-06-23T22:50:42.063Z,11.23
2018-06-23T22:53:10.081Z,11.83
2018-06-23T22:55:38.407Z,11.77
2018-06-23T22:58:06.527Z,10.90
2018-06-23T23:00:35.590Z,10.47
2018-06-23T23:03:03.564Z,11.33
2018-06-23T23:05:31.574Z,12.37
2018-06-23T23:07:59.440Z,12.00
2018-06-23T23:10:27.391Z,11.90
2018-06-23T23:12:55.418Z,10.27
2018-06-23T23:15:23.394Z,10.17
2018-06-23T23:17:51.265Z,10.80
2018-06-23T23:20:19.271Z,7.53
2018-06-23T23:22:47.273Z,11.30
2018-06-23T23:25:15.316Z,9.50
2018-06-23T23:27:43.339Z,9.67
2018-06-23T23:30:11.461Z,9.80
2018-06-23T23:32:39.590Z,11.20
2018-06-23T23:35:07.562Z,9.70
2018-06-23T23:37:35.355Z,9.50
2018-06-23T23:40:03.345Z,8.80
2018-06-23T23:42:31.414Z,8.97
2018-06-23T23:44:59.532Z,8.67
2018-06-23T23:47:27.727Z,7.80
2018-06-23T23:49:55.775Z,8.17
2018-06-23T23:52:23.763Z,7.70
2018-06-23T23:54:51.723Z,7.93
2018-06-23T23:57:19.578Z,8.00
2018-06-23T23:59:47.526Z,7.57
